createdAt,value
2022-07-26T00:00:58.646Z,99004.75
2022-07-26T00:03:27.893Z,99007.84
2022-07-26T00:05:55.823Z,99009.66
2022-07-26T00:08:23.814Z,99001.66
2022-07-26T00:10:52.407Z,99000.91
2022-07-26T00:13:21.915Z,99006.66
2022-07-26T00:15:50.633Z,98998.00
2022-07-26T00:18:18.910Z,99005.56
2022-07-26T00:20:48.942Z,98994.59
2022-07-26T00:23:17.021Z,98993.13
2022-07-26T00:25:44.970Z,98991.75
2022-07-26T00:28:12.973Z,98989.06
2022-07-26T00:30:40.979Z,98995.91
2022-07-26T00:33:09.017Z,98989.47
2022-07-26T00:35:37.148Z,98989.31
2022-07-26T00:38:06.553Z,98984.19
2022-07-26T00:40:35.925Z,98980.72
2022-07-26T00:43:03.957Z,98984.81
2022-07-26T00:45:32.975Z,98980.72
2022-07-26T00:48:00.929Z,98984.00
2022-07-26T00:50:28.862Z,98989.25
2022-07-26T00:52:56.996Z,98984.63
2022-07-26T00:55:26.324Z,98976.81
2022-07-26T00:57:54.449Z,98984.63
2022-07-26T01:00:27.796Z,98984.69
2022-07-26T01:02:55.819Z,98990.09
2022-07-26T01:05:24.350Z,98986.44
2022-07-26T01:07:53.065Z,98980.13
2022-07-26T01:10:21.924Z,98971.25
2022-07-26T01:12:51.362Z,98973.59
2022-07-26T01:15:19.422Z,98962.66
2022-07-26T01:17:47.518Z,98973.06
2022-07-26T01:20:15.983Z,98971.84
2022-07-26T01:22:45.314Z,98971.56
2022-07-26T01:25:13.374Z,98967.06
2022-07-26T01:27:41.403Z,98961.66
2022-07-26T01:30:13.102Z,98958.00
2022-07-26T01:32:41.656Z,98951.44
2022-07-26T01:35:10.737Z,98957.03
2022-07-26T01:37:38.785Z,98965.63
2022-07-26T01:40:11.327Z,98956.47
2022-07-26T01:42:40.923Z,98953.16
2022-07-26T01:45:09.996Z,98957.56
2022-07-26T01:47:38.016Z,98959.44
2022-07-26T01:50:08.558Z,98954.25
2022-07-26T01:52:37.326Z,98959.53
2022-07-26T01:55:05.896Z,98957.72
2022-07-26T01:57:35.274Z,98965.63
2022-07-26T02:00:05.227Z,98963.41
2022-07-26T02:02:35.315Z,98965.88
2022-07-26T02:05:03.822Z,98961.66
2022-07-26T02:07:34.116Z,98951.63
2022-07-26T02:10:02.105Z,98953.22
2022-07-26T02:12:30.062Z,98966.03
2022-07-26T02:15:00.586Z,98958.69
2022-07-26T02:17:28.573Z,98954.59
2022-07-26T02:19:56.677Z,98964.06
2022-07-26T02:22:24.714Z,98962.41
2022-07-26T02:24:52.586Z,98958.81
2022-07-26T02:27:20.833Z,98956.03
2022-07-26T02:29:48.733Z,98965.31
2022-07-26T02:32:18.012Z,98957.16
2022-07-26T02:34:45.905Z,98958.81
2022-07-26T02:37:13.821Z,98952.19
2022-07-26T02:39:41.831Z,98963.50
2022-07-26T02:42:09.825Z,98962.78
2022-07-26T02:44:37.792Z,98972.56
2022-07-26T02:47:05.929Z,98968.63
2022-07-26T02:49:35.528Z,98960.28
2022-07-26T02:52:06.634Z,98956.53
2022-07-26T02:54:34.555Z,98940.31
2022-07-26T02:57:02.450Z,98945.28
2022-07-26T02:59:30.402Z,98935.84
2022-07-26T03:01:58.533Z,98953.72
2022-07-26T03:04:26.614Z,98931.91
2022-07-26T03:06:55.970Z,98965.63
2022-07-26T03:09:24.039Z,98965.75
2022-07-26T03:11:52.089Z,98963.31
2022-07-26T03:14:20.042Z,98969.31
2022-07-26T03:16:48.383Z,98973.66
2022-07-26T03:19:16.359Z,98988.59
2022-07-26T03:21:44.321Z,98994.78
2022-07-26T03:24:13.604Z,99004.84
2022-07-26T03:26:41.485Z,99008.78
2022-07-26T03:29:09.427Z,99024.25
2022-07-26T03:31:37.342Z,99023.50
2022-07-26T03:34:05.718Z,99030.50
2022-07-26T03:36:33.780Z,99047.19
2022-07-26T03:39:01.746Z,99047.78
2022-07-26T03:41:31.630Z,99036.97
2022-07-26T03:43:59.569Z,99051.81
2022-07-26T03:46:27.796Z,99047.53
2022-07-26T03:48:56.066Z,99044.56
2022-07-26T03:51:24.329Z,99057.75
2022-07-26T03:53:52.358Z,99055.75
2022-07-26T03:56:35.262Z,99063.81
2022-07-26T03:59:06.388Z,99047.94
2022-07-26T04:01:35.305Z,99049.06
2022-07-26T04:04:03.461Z,99040.28
2022-07-26T04:06:31.425Z,99046.31
2022-07-26T04:08:59.330Z,99027.97
2022-07-26T04:11:28.593Z,99033.75
2022-07-26T04:13:57.305Z,99024.84
2022-07-26T04:16:27.127Z,99022.81
2022-07-26T04:18:55.509Z,99025.38
2022-07-26T04:21:23.704Z,99035.47
2022-07-26T04:23:52.147Z,99035.47
2022-07-26T04:26:20.417Z,99048.75
2022-07-26T04:28:48.894Z,99054.41
2022-07-26T04:31:16.878Z,99062.84
2022-07-26T04:33:46.238Z,99058.63
2022-07-26T04:36:14.220Z,99063.69
2022-07-26T04:38:42.756Z,99068.69
2022-07-26T04:41:10.754Z,99058.47
2022-07-26T04:43:38.677Z,99058.47
2022-07-26T04:46:07.286Z,99060.69
2022-07-26T04:48:35.532Z,99069.84
2022-07-26T04:51:05.031Z,99066.91
2022-07-26T04:53:33.068Z,99069.34
2022-07-26T04:56:00.986Z,99079.31
2022-07-26T04:58:28.995Z,99070.31
2022-07-26T05:01:09.454Z,99077.28
2022-07-26T05:03:38.166Z,99081.13
2022-07-26T05:06:08.029Z,99072.22
2022-07-26T05:08:36.106Z,99078.59
2022-07-26T05:11:04.584Z,99079.19
2022-07-26T05:13:32.934Z,99078.28
2022-07-26T05:16:01.911Z,99068.75
2022-07-26T05:18:45.973Z,99079.84
2022-07-26T05:21:19.621Z,99082.91
2022-07-26T05:23:47.646Z,99080.78
2022-07-26T05:26:15.766Z,99087.28
2022-07-26T05:28:43.662Z,99082.63
2022-07-26T05:31:11.738Z,99086.53
2022-07-26T05:33:39.794Z,99081.88
2022-07-26T05:36:08.028Z,99087.16
2022-07-26T05:38:37.626Z,99095.59
2022-07-26T05:41:06.085Z,99093.28
2022-07-26T05:43:40.924Z,99084.00
2022-07-26T05:46:10.799Z,99077.59
2022-07-26T05:48:39.026Z,99070.44
2022-07-26T05:51:07.244Z,99076.56
2022-07-26T05:53:35.246Z,99079.19
2022-07-26T05:56:04.765Z,99071.28
2022-07-26T05:58:32.877Z,99060.88
2022-07-26T06:01:00.856Z,99060.16
2022-07-26T06:03:30.078Z,99062.97
2022-07-26T06:05:59.671Z,99049.78
2022-07-26T06:08:27.977Z,99044.63
2022-07-26T06:10:56.011Z,99059.88
2022-07-26T06:13:25.515Z,99057.94
2022-07-26T06:15:53.952Z,99050.59
2022-07-26T06:18:22.011Z,99060.16
2022-07-26T06:20:50.221Z,99057.53
2022-07-26T06:23:18.209Z,99058.28
2022-07-26T06:26:02.423Z,99070.84
2022-07-26T06:28:32.656Z,99088.31
2022-07-26T06:31:00.710Z,99096.34
2022-07-26T06:33:28.665Z,99114.06
2022-07-26T06:35:56.659Z,99115.09
2022-07-26T06:38:24.728Z,99121.47
2022-07-26T06:40:52.752Z,99118.53
2022-07-26T06:43:20.784Z,99137.53
2022-07-26T06:45:50.576Z,99132.03
2022-07-26T06:48:18.849Z,99116.63
2022-07-26T06:50:46.884Z,99119.69
2022-07-26T06:53:14.925Z,99116.31
2022-07-26T06:55:43.111Z,99111.03
2022-07-26T06:58:11.187Z,99110.88
2022-07-26T07:00:39.233Z,99119.03
2022-07-26T07:03:08.629Z,99113.56
2022-07-26T07:05:36.995Z,99112.66
2022-07-26T07:08:07.437Z,99115.38
2022-07-26T07:10:35.448Z,99113.78
2022-07-26T07:13:04.263Z,99119.03
2022-07-26T07:15:32.510Z,99123.97
2022-07-26T07:18:00.712Z,99126.25
2022-07-26T07:20:30.453Z,99128.38
2022-07-26T07:22:58.651Z,99130.63
2022-07-26T07:25:30.892Z,99131.38
2022-07-26T07:27:59.373Z,99127.06
2022-07-26T07:30:28.278Z,99121.84
2022-07-26T07:32:57.043Z,99120.03
2022-07-26T07:35:31.632Z,99118.59
2022-07-26T07:38:02.070Z,99118.53
2022-07-26T07:40:30.541Z,99109.69
2022-07-26T07:42:59.369Z,99109.38
2022-07-26T07:45:27.795Z,99119.78
2022-07-26T07:47:56.106Z,99130.63
2022-07-26T07:50:27.189Z,99143.00
2022-07-26T07:52:59.133Z,99157.16
2022-07-26T07:55:41.459Z,99170.53
2022-07-26T07:58:12.416Z,99179.38
2022-07-26T08:00:42.649Z,99175.31
2022-07-26T08:03:10.763Z,99170.44
2022-07-26T08:05:40.507Z,99160.03
2022-07-26T08:08:09.197Z,99183.06
2022-07-26T08:10:43.672Z,99185.22
2022-07-26T08:13:21.409Z,99186.34
2022-07-26T08:15:50.697Z,99175.03
2022-07-26T08:18:19.667Z,99178.84
2022-07-26T08:20:54.020Z,99183.81
2022-07-26T08:23:22.649Z,99166.41
2022-07-26T08:25:57.796Z,99177.53
2022-07-26T08:28:46.894Z,99182.09
2022-07-26T08:31:15.730Z,99188.06
2022-07-26T08:33:46.294Z,99183.44
2022-07-26T08:36:16.014Z,99182.38
2022-07-26T08:38:44.325Z,99187.34
2022-07-26T08:41:13.705Z,99178.56
2022-07-26T08:43:43.747Z,99171.78
2022-07-26T08:46:27.725Z,99186.38
2022-07-26T08:48:57.014Z,99202.34
2022-07-26T08:51:26.286Z,99223.97
2022-07-26T08:54:02.159Z,99204.94
2022-07-26T08:56:35.518Z,99223.53
2022-07-26T08:59:07.982Z,99217.72
2022-07-26T09:01:36.301Z,99213.72
2022-07-26T09:04:31.143Z,99194.59
2022-07-26T09:07:03.166Z,99184.75
2022-07-26T09:09:32.587Z,99167.19
2022-07-26T09:12:15.004Z,99156.00
2022-07-26T09:14:42.993Z,99169.22
2022-07-26T09:17:10.886Z,99173.06
2022-07-26T09:19:38.834Z,99180.22
2022-07-26T09:22:12.074Z,99177.84
2022-07-26T09:24:42.376Z,99185.19
2022-07-26T09:27:18.477Z,99200.88
2022-07-26T09:29:48.718Z,99213.69
2022-07-26T09:32:19.328Z,99225.09
2022-07-26T09:34:53.158Z,99234.84
2022-07-26T09:37:35.157Z,99233.16
2022-07-26T09:40:06.225Z,99226.56
2022-07-26T09:42:35.818Z,99242.16
2022-07-26T09:45:15.896Z,99246.28
2022-07-26T09:47:43.919Z,99254.09
2022-07-26T09:50:14.250Z,99244.50
2022-07-26T09:52:57.659Z,99238.91
2022-07-26T09:55:26.197Z,99244.44
2022-07-26T09:57:55.936Z,99237.94
2022-07-26T10:00:25.785Z,99250.03
2022-07-26T10:02:54.340Z,99257.06
2022-07-26T10:05:22.680Z,99262.97
2022-07-26T10:07:51.670Z,99266.56
2022-07-26T10:10:24.390Z,99263.47
2022-07-26T10:12:55.579Z,99268.47
2022-07-26T10:15:38.469Z,99269.41
2022-07-26T10:18:08.343Z,99271.81
2022-07-26T10:20:42.217Z,99262.22
2022-07-26T10:23:49.978Z,99249.00
2022-07-26T10:26:45.428Z,99244.28
2022-07-26T10:29:29.255Z,99241.84
2022-07-26T10:32:17.542Z,99248.38
2022-07-26T10:34:46.346Z,99243.50
2022-07-26T10:37:27.596Z,99235.81
2022-07-26T10:40:19.156Z,99229.50
2022-07-26T10:42:47.104Z,99238.22
2022-07-26T10:45:23.030Z,99241.69
2022-07-26T10:48:22.737Z,99247.72
2022-07-26T10:50:53.395Z,99244.03
2022-07-26T10:53:23.433Z,99247.59
2022-07-26T10:55:52.875Z,99247.56
2022-07-26T10:58:21.670Z,99234.28
2022-07-26T11:01:00.931Z,99239.78
2022-07-26T11:03:38.945Z,99233.19
2022-07-26T11:06:14.588Z,99236.09
2022-07-26T11:08:47.783Z,99235.91
2022-07-26T11:11:29.992Z,99246.84
2022-07-26T11:14:07.020Z,99244.81
2022-07-26T11:16:40.774Z,99241.81
2022-07-26T11:19:17.369Z,99244.75
2022-07-26T11:21:46.513Z,99245.06
2022-07-26T11:24:14.946Z,99243.06
2022-07-26T11:26:44.137Z,99234.94
2022-07-26T11:29:17.696Z,99234.84
2022-07-26T11:32:00.141Z,99228.53
2022-07-26T11:34:35.627Z,99219.44
2022-07-26T11:37:05.738Z,99217.59
2022-07-26T11:39:36.454Z,99219.28
2022-07-26T11:42:06.365Z,99223.09
2022-07-26T11:44:34.664Z,99223.34
2022-07-26T11:47:12.072Z,99219.78
2022-07-26T11:52:31.147Z,99225.13
2022-07-26T11:54:59.186Z,99222.63
2022-07-26T11:57:30.078Z,99220.00
2022-07-26T11:59:59.707Z,99222.09
2022-07-26T12:02:30.106Z,99205.81
2022-07-26T12:05:14.081Z,99204.13
2022-07-26T12:07:54.889Z,99208.59
2022-07-26T12:10:23.139Z,99192.44
2022-07-26T12:12:51.389Z,99188.97
2022-07-26T12:15:19.578Z,99199.09
2022-07-26T12:18:01.772Z,99186.09
2022-07-26T12:20:29.771Z,99206.50
2022-07-26T12:23:04.936Z,99186.19
2022-07-26T12:25:33.709Z,99203.66
2022-07-26T12:28:01.731Z,99198.22
2022-07-26T12:30:36.461Z,99219.00
2022-07-26T12:33:05.960Z,99213.88
2022-07-26T12:35:35.644Z,99213.88
2022-07-26T12:38:04.615Z,99213.63
2022-07-26T12:40:41.930Z,99199.75
2022-07-26T12:43:10.066Z,99194.22
2022-07-26T12:45:38.541Z,99221.19
2022-07-26T12:48:11.837Z,99224.38
2022-07-26T12:50:40.036Z,99230.75
2022-07-26T12:53:12.559Z,99228.66
2022-07-26T12:55:40.817Z,99218.13
2022-07-26T12:58:09.154Z,99221.88
2022-07-26T13:00:37.184Z,99215.69
2022-07-26T13:03:05.348Z,99220.44
2022-07-26T13:05:34.649Z,99216.94
2022-07-26T13:08:02.554Z,99214.81
2022-07-26T13:10:33.460Z,99212.13
2022-07-26T13:13:02.609Z,99219.56
2022-07-26T13:15:36.415Z,99214.63
2022-07-26T13:18:08.155Z,99223.13
2022-07-26T13:20:39.231Z,99227.78
2022-07-26T13:23:09.772Z,99226.94
2022-07-26T13:25:40.617Z,99239.03
2022-07-26T13:28:09.970Z,99228.75
2022-07-26T13:30:42.896Z,99248.19
2022-07-26T13:33:11.689Z,99254.13
2022-07-26T13:35:42.833Z,99249.88
2022-07-26T13:38:11.119Z,99248.09
2022-07-26T13:40:39.104Z,99250.88
2022-07-26T13:43:07.111Z,99252.63
2022-07-26T13:45:35.056Z,99250.88
2022-07-26T13:48:03.031Z,99252.63
2022-07-26T13:50:30.954Z,99251.94
2022-07-26T13:53:00.302Z,99258.75
2022-07-26T13:55:28.301Z,99256.88
2022-07-26T13:57:57.877Z,99270.72
2022-07-26T14:00:27.712Z,99262.19
2022-07-26T14:02:58.033Z,99269.00
2022-07-26T14:05:27.532Z,99259.84
2022-07-26T14:07:56.182Z,99276.41
2022-07-26T14:10:25.862Z,99281.88
2022-07-26T14:12:54.381Z,99276.16
2022-07-26T14:15:23.496Z,99284.91
2022-07-26T14:17:52.228Z,99278.41
2022-07-26T14:20:20.977Z,99271.63
2022-07-26T14:22:53.057Z,99255.38
2022-07-26T14:25:21.414Z,99256.56
2022-07-26T14:27:51.189Z,99256.25
2022-07-26T14:30:19.919Z,99252.81
2022-07-26T14:32:48.248Z,99271.97
2022-07-26T14:35:17.522Z,99269.97
2022-07-26T14:37:46.298Z,99275.47
2022-07-26T14:40:16.437Z,99262.59
2022-07-26T14:42:45.039Z,99261.56
2022-07-26T14:45:15.368Z,99271.63
2022-07-26T14:47:43.837Z,99276.25
2022-07-26T14:50:13.091Z,99286.94
2022-07-26T14:52:42.252Z,99257.25
2022-07-26T14:55:10.727Z,99266.34
2022-07-26T14:57:40.275Z,99268.78
2022-07-26T15:00:10.700Z,99272.38
2022-07-26T15:02:41.577Z,99286.19
2022-07-26T15:05:10.609Z,99266.19
2022-07-26T15:07:39.875Z,99273.31
2022-07-26T15:10:09.221Z,99271.53
2022-07-26T15:12:37.976Z,99266.19
2022-07-26T15:15:07.276Z,99259.63
2022-07-26T15:17:35.509Z,99271.69
2022-07-26T15:20:06.255Z,99269.88
2022-07-26T15:22:34.746Z,99277.19
2022-07-26T15:25:02.706Z,99268.50
2022-07-26T15:27:30.652Z,99270.53
2022-07-26T15:30:04.223Z,99273.03
2022-07-26T15:32:35.169Z,99273.53
2022-07-26T15:35:08.276Z,99275.97
2022-07-26T15:37:44.677Z,99278.66
2022-07-26T15:40:13.677Z,99275.47
2022-07-26T15:42:44.260Z,99283.94
2022-07-26T15:45:14.085Z,99275.47
2022-07-26T15:48:05.734Z,99280.31
2022-07-26T15:50:31.791Z,99266.00
2022-07-26T15:52:59.771Z,99268.56
2022-07-26T15:55:27.695Z,99262.47
2022-07-26T15:57:55.689Z,99269.50
2022-07-26T16:00:23.757Z,99276.69
2022-07-26T16:02:52.221Z,99266.81
2022-07-26T16:05:20.537Z,99274.25
2022-07-26T16:07:49.865Z,99277.16
2022-07-26T16:10:18.783Z,99273.09
2022-07-26T16:12:46.858Z,99274.44
2022-07-26T16:15:14.997Z,99276.69
2022-07-26T16:17:42.919Z,99270.09
2022-07-26T16:20:11.378Z,99271.31
2022-07-26T16:22:41.006Z,99259.34
2022-07-26T16:25:13.542Z,99277.25
2022-07-26T16:27:43.051Z,99286.13
2022-07-26T16:30:12.544Z,99260.81
2022-07-26T16:32:40.585Z,99264.22
2022-07-26T16:35:09.328Z,99268.38
2022-07-26T16:37:37.352Z,99271.50
2022-07-26T16:40:06.543Z,99254.06
2022-07-26T16:42:35.937Z,99259.06
2022-07-26T16:45:04.984Z,99265.28
2022-07-26T16:47:32.913Z,99268.69
2022-07-26T16:50:00.895Z,99262.19
2022-07-26T16:52:28.950Z,99257.16
2022-07-26T16:54:56.975Z,99255.75
2022-07-26T16:57:24.851Z,99259.94
2022-07-26T16:59:54.189Z,99254.09
2022-07-26T17:02:22.253Z,99253.50
2022-07-26T17:04:50.231Z,99244.13
2022-07-26T17:07:26.235Z,99245.59
2022-07-26T17:09:55.504Z,99253.06
2022-07-26T17:12:24.026Z,99254.34
2022-07-26T17:14:52.209Z,99255.47
2022-07-26T17:17:21.597Z,99267.84
2022-07-26T17:19:49.676Z,99272.72
2022-07-26T17:22:18.382Z,99277.66
2022-07-26T17:24:46.466Z,99267.25
2022-07-26T17:27:14.912Z,99260.31
2022-07-26T17:29:45.229Z,99268.78
2022-07-26T17:32:13.205Z,99264.84
2022-07-26T17:34:42.705Z,99264.09
2022-07-26T17:37:12.250Z,99269.34
2022-07-26T17:39:51.588Z,99281.94
2022-07-26T17:42:21.055Z,99286.53
2022-07-26T17:44:49.384Z,99296.56
2022-07-26T17:47:18.142Z,99280.22
2022-07-26T17:50:19.515Z,99281.91
2022-07-26T17:52:49.115Z,99280.84
2022-07-26T17:55:18.430Z,99279.59
2022-07-26T17:57:47.602Z,99278.28
2022-07-26T18:00:16.999Z,99287.78
2022-07-26T18:02:44.922Z,99287.81
2022-07-26T18:05:15.043Z,99283.78
2022-07-26T18:07:43.104Z,99286.44
2022-07-26T18:10:11.520Z,99281.19
2022-07-26T18:12:39.474Z,99279.25
2022-07-26T18:15:08.583Z,99284.00
2022-07-26T18:17:37.284Z,99282.81
2022-07-26T18:20:07.148Z,99281.47
2022-07-26T18:22:36.493Z,99276.75
2022-07-26T18:25:05.534Z,99280.47
2022-07-26T18:27:34.059Z,99290.97
2022-07-26T18:30:02.007Z,99295.63
2022-07-26T18:32:29.928Z,99294.25
2022-07-26T18:34:57.855Z,99300.41
2022-07-26T18:37:25.813Z,99297.28
2022-07-26T18:39:57.820Z,99303.41
2022-07-26T18:42:26.338Z,99300.44
2022-07-26T18:44:54.311Z,99310.78
2022-07-26T18:47:22.289Z,99319.59
2022-07-26T18:49:50.339Z,99330.09
2022-07-26T18:52:28.770Z,99324.44
2022-07-26T18:55:06.609Z,99323.91
2022-07-26T18:57:34.885Z,99324.69
2022-07-26T19:00:02.979Z,99334.94
2022-07-26T19:02:31.012Z,99341.31
2022-07-26T19:04:59.029Z,99330.69
2022-07-26T19:07:27.051Z,99334.97
2022-07-26T19:09:58.375Z,99343.50
2022-07-26T19:12:29.155Z,99338.50
2022-07-26T19:14:59.773Z,99336.91
2022-07-26T19:17:30.308Z,99344.75
2022-07-26T19:20:00.885Z,99346.34
2022-07-26T19:22:30.356Z,99341.53
2022-07-26T19:24:58.514Z,99342.66
2022-07-26T19:27:28.737Z,99342.81
2022-07-26T19:29:57.431Z,99344.75
2022-07-26T19:32:29.051Z,99354.97
2022-07-26T19:34:59.743Z,99353.34
2022-07-26T19:37:27.645Z,99343.25
2022-07-26T19:40:00.291Z,99353.50
2022-07-26T19:42:31.755Z,99348.41
2022-07-26T19:44:59.984Z,99350.09
2022-07-26T19:47:29.659Z,99352.66
2022-07-26T19:49:58.683Z,99347.44
2022-07-26T19:52:26.645Z,99358.47
2022-07-26T19:54:54.637Z,99354.34
2022-07-26T19:57:22.790Z,99348.56
2022-07-26T19:59:52.218Z,99364.53
2022-07-26T20:02:20.281Z,99368.94
2022-07-26T20:04:50.779Z,99370.88
2022-07-26T20:07:19.639Z,99379.38
2022-07-26T20:09:48.034Z,99382.63
2022-07-26T20:12:17.467Z,99387.25
2022-07-26T20:14:45.741Z,99380.03
2022-07-26T20:17:15.212Z,99386.47
2022-07-26T20:19:43.364Z,99387.91
2022-07-26T20:22:11.809Z,99397.88
2022-07-26T20:24:39.780Z,99397.00
2022-07-26T20:27:08.248Z,99396.28
2022-07-26T20:29:36.281Z,99388.09
2022-07-26T20:32:04.307Z,99391.34
2022-07-26T20:34:33.805Z,99397.97
2022-07-26T20:37:01.694Z,99391.88
2022-07-26T20:39:29.837Z,99400.22
2022-07-26T20:41:58.213Z,99395.94
2022-07-26T20:44:28.404Z,99406.00
2022-07-26T20:46:56.831Z,99405.97
2022-07-26T20:49:24.999Z,99411.13
2022-07-26T20:51:54.379Z,99403.66
2022-07-26T20:54:22.318Z,99410.34
2022-07-26T20:56:50.616Z,99400.94
2022-07-26T20:59:18.545Z,99394.09
2022-07-26T21:01:46.772Z,99396.59
2022-07-26T21:04:14.838Z,99395.75
2022-07-26T21:06:42.887Z,99394.88
2022-07-26T21:09:12.785Z,99389.06
2022-07-26T21:11:40.918Z,99401.81
2022-07-26T21:14:08.921Z,99405.19
2022-07-26T21:16:37.046Z,99410.34
2022-07-26T21:19:05.780Z,99410.41
2022-07-26T21:21:36.966Z,99411.41
2022-07-26T21:24:06.319Z,99404.00
2022-07-26T21:26:35.843Z,99404.09
2022-07-26T21:29:04.623Z,99409.31
2022-07-26T21:31:32.690Z,99410.28
2022-07-26T21:34:00.653Z,99416.41
2022-07-26T21:36:28.591Z,99410.78
2022-07-26T21:38:56.594Z,99410.97
2022-07-26T21:41:24.527Z,99421.25
2022-07-26T21:43:53.788Z,99413.56
2022-07-26T21:46:21.906Z,99414.41
2022-07-26T21:48:49.943Z,99420.41
2022-07-26T21:51:18.369Z,99417.09
2022-07-26T21:53:46.394Z,99423.88
2022-07-26T21:56:14.629Z,99426.38
2022-07-26T21:58:42.534Z,99423.84
2022-07-26T22:01:12.718Z,99417.75
2022-07-26T22:03:42.567Z,99412.59
2022-07-26T22:06:11.293Z,99404.28
2022-07-26T22:08:39.358Z,99421.13
2022-07-26T22:11:07.415Z,99422.88
2022-07-26T22:13:35.617Z,99413.69
2022-07-26T22:16:03.727Z,99423.16
2022-07-26T22:18:33.426Z,99433.41
2022-07-26T22:21:01.576Z,99434.25
2022-07-26T22:23:30.914Z,99438.47
2022-07-26T22:25:59.551Z,99438.47
2022-07-26T22:28:27.553Z,99442.06
2022-07-26T22:30:55.620Z,99438.56
2022-07-26T22:33:24.307Z,99443.56
2022-07-26T22:35:53.865Z,99414.19
2022-07-26T22:38:21.855Z,99440.91
2022-07-26T22:40:49.806Z,99441.81
2022-07-26T22:43:17.890Z,99450.56
2022-07-26T22:45:45.860Z,99442.41
2022-07-26T22:48:13.920Z,99459.50
2022-07-26T22:50:41.873Z,99447.75
2022-07-26T22:53:11.228Z,99456.25
2022-07-26T22:55:39.157Z,99461.44
2022-07-26T22:58:07.069Z,99461.53
2022-07-26T23:00:35.208Z,99454.06
2022-07-26T23:03:03.362Z,99453.28
2022-07-26T23:05:45.812Z,99441.63
2022-07-26T23:11:04.730Z,99454.16
2022-07-26T23:13:32.677Z,99453.41
2022-07-26T23:16:01.660Z,99460.31
2022-07-26T23:18:31.055Z,99453.56
2022-07-26T23:20:59.029Z,99458.66
2022-07-26T23:23:29.602Z,99461.06
2022-07-26T23:25:59.203Z,99446.56
2022-07-26T23:28:35.867Z,99454.31
2022-07-26T23:31:10.749Z,99450.38
2022-07-26T23:33:51.473Z,99452.22
2022-07-26T23:36:26.014Z,99449.59
2022-07-26T23:38:56.492Z,99453.78
2022-07-26T23:41:25.090Z,99448.78
2022-07-26T23:43:54.156Z,99459.09
2022-07-26T23:46:22.636Z,99455.03
2022-07-26T23:48:51.576Z,99456.09
2022-07-26T23:51:20.437Z,99451.81
2022-07-26T23:53:48.917Z,99451.13
2022-07-26T23:56:18.918Z,99452.84
2022-07-26T23:58:46.951Z,99450.44
